Time;durP1;ratioP1;P1;durP2;ratioP2;P2;SDS_P1;SDS_P2;PMS_P1;PMS_P2;Temp;Humidity;BMP_temperature;BMP_pressure;BME280_temperature;BME280_humidity;BME280_pressure;Samples;Min_cycle;Max_cycle;Signal;HPM_P1;HPM_P2
2023/11/26 00:00:58;;;;;;;1.80;1.47;;;21.20;84.60;;;;;;5031521;28;20458;-77
2023/11/26 00:03:25;;;;;;;1.47;1.10;;;21.20;84.70;;;;;;5025300;28;20469;-76
2023/11/26 00:05:52;;;;;;;1.30;1.00;;;21.20;84.60;;;;;;5030223;28;20487;-78
2023/11/26 00:08:18;;;;;;;1.37;1.23;;;21.20;84.70;;;;;;5028577;28;20233;-78
2023/11/26 00:10:45;;;;;;;3.80;1.53;;;21.20;84.80;;;;;;5031122;28;20542;-77
2023/11/26 00:13:12;;;;;;;1.20;1.00;;;21.20;84.70;;;;;;5031591;28;20460;-78
2023/11/26 00:15:40;;;;;;;1.20;0.80;;;21.20;84.70;;;;;;5027570;28;20466;-75
2023/11/26 00:18:07;;;;;;;1.40;1.03;;;21.20;84.70;;;;;;5028350;28;20471;-79
2023/11/26 00:20:34;;;;;;;1.43;1.00;;;21.20;84.80;;;;;;5029180;28;20451;-77
2023/11/26 00:23:00;;;;;;;1.17;1.00;;;21.10;84.80;;;;;;5025489;28;20457;-75
2023/11/26 00:25:27;;;;;;;1.83;1.10;;;21.10;84.70;;;;;;5023374;28;20988;-72
2023/11/26 00:27:54;;;;;;;1.50;0.98;;;21.20;84.90;;;;;;5020721;28;20461;-71
2023/11/26 00:30:20;;;;;;;1.37;1.07;;;21.10;84.70;;;;;;5022330;28;20230;-71
2023/11/26 00:32:49;;;;;;;2.53;1.20;;;21.10;84.70;;;;;;5025810;28;21009;-70
2023/11/26 00:35:16;;;;;;;1.50;0.90;;;21.10;84.70;;;;;;5026919;28;20467;-70
2023/11/26 00:37:43;;;;;;;1.43;1.00;;;21.10;84.80;;;;;;5025078;28;20465;-70
2023/11/26 00:40:12;;;;;;;1.93;1.23;;;21.10;84.80;;;;;;5020815;28;20807;-70
2023/11/26 00:42:39;;;;;;;1.23;0.80;;;21.10;84.80;;;;;;5022829;28;20459;-71
2023/11/26 00:45:06;;;;;;;1.80;0.90;;;21.10;84.90;;;;;;5024598;28;20469;-70
2023/11/26 00:47:33;;;;;;;1.57;1.00;;;21.10;84.80;;;;;;5022728;28;21242;-70
2023/11/26 00:50:03;;;;;;;1.73;1.00;;;21.10;84.80;;;;;;5010536;28;20479;-70
2023/11/26 00:52:31;;;;;;;2.37;1.17;;;21.10;84.90;;;;;;5025559;28;20846;-70
2023/11/26 00:54:58;;;;;;;1.40;1.00;;;21.10;85.00;;;;;;5030307;28;21378;-70
2023/11/26 00:57:25;;;;;;;1.20;1.03;;;21.00;84.80;;;;;;5025127;28;20459;-70
2023/11/26 00:59:51;;;;;;;2.93;1.30;;;21.10;85.00;;;;;;5028946;28;20461;-70
2023/11/26 01:02:21;;;;;;;1.23;0.90;;;21.00;84.80;;;;;;5027593;28;20963;-71
2023/11/26 01:04:48;;;;;;;1.60;1.40;;;21.10;84.90;;;;;;5028771;28;20462;-70
2023/11/26 01:07:16;;;;;;;1.03;0.83;;;21.00;84.80;;;;;;5026649;28;20469;-69
2023/11/26 01:09:43;;;;;;;1.70;0.83;;;21.00;85.60;;;;;;5026142;28;20473;-70
2023/11/26 01:12:09;;;;;;;1.40;0.90;;;21.00;84.90;;;;;;5026800;28;20465;-70
2023/11/26 01:14:36;;;;;;;1.20;0.97;;;21.00;84.80;;;;;;5030721;28;20449;-70
2023/11/26 01:17:03;;;;;;;2.35;1.38;;;21.00;84.80;;;;;;5025675;28;20454;-70
2023/11/26 01:19:30;;;;;;;1.23;0.90;;;21.00;85.70;;;;;;5028597;28;20238;-70
2023/11/26 01:21:57;;;;;;;2.42;1.15;;;21.00;84.90;;;;;;5030479;28;20458;-70
2023/11/26 01:24:25;;;;;;;1.30;1.00;;;21.00;84.80;;;;;;5028997;28;20209;-71
2023/11/26 01:26:51;;;;;;;1.63;1.10;;;21.00;84.90;;;;;;5033183;28;20460;-69
2023/11/26 01:29:18;;;;;;;1.43;0.93;;;21.00;84.90;;;;;;5028651;28;20488;-70
2023/11/26 01:31:45;;;;;;;1.70;1.07;;;21.00;84.90;;;;;;5031586;28;20464;-70
2023/11/26 01:34:12;;;;;;;1.47;1.07;;;21.00;84.90;;;;;;5027991;28;20466;-70
2023/11/26 01:36:41;;;;;;;1.10;0.80;;;21.00;84.90;;;;;;5024082;28;20448;-70
2023/11/26 01:39:09;;;;;;;1.00;0.80;;;21.00;85.00;;;;;;5026888;28;20477;-69
2023/11/26 01:41:37;;;;;;;1.40;0.90;;;21.00;84.90;;;;;;5024215;28;20458;-70
2023/11/26 01:44:04;;;;;;;1.30;1.10;;;21.00;84.90;;;;;;5028323;28;20454;-70
2023/11/26 01:46:32;;;;;;;1.08;0.73;;;21.00;85.10;;;;;;5019227;28;20469;-70
2023/11/26 01:48:59;;;;;;;1.47;0.97;;;21.00;85.10;;;;;;5029076;28;20219;-70
2023/11/26 01:51:30;;;;;;;1.30;0.90;;;21.00;85.20;;;;;;5026273;28;20460;-69
2023/11/26 01:53:57;;;;;;;1.67;0.93;;;21.00;85.40;;;;;;5028523;28;20454;-69
2023/11/26 01:56:24;;;;;;;1.30;1.10;;;21.00;85.00;;;;;;5028177;28;20286;-70
2023/11/26 01:58:53;;;;;;;1.50;0.90;;;21.00;85.20;;;;;;5030259;28;20461;-70
2023/11/26 02:01:23;;;;;;;1.20;1.00;;;21.00;85.50;;;;;;5021987;28;21313;-70
2023/11/26 02:03:50;;;;;;;1.00;0.80;;;21.00;85.20;;;;;;5020492;28;20450;-71
2023/11/26 02:06:17;;;;;;;1.30;1.10;;;21.00;85.40;;;;;;5024085;28;20461;-70
2023/11/26 02:08:46;;;;;;;1.40;1.00;;;21.00;85.70;;;;;;5031646;28;20453;-70
2023/11/26 02:11:12;;;;;;;1.87;0.97;;;21.00;85.70;;;;;;5032294;28;20208;-70
2023/11/26 02:13:46;;;;;;;1.27;0.90;;;21.00;85.50;;;;;;5031819;28;20466;-69
2023/11/26 02:16:15;;;;;;;1.30;0.83;;;21.00;85.60;;;;;;5027162;28;20467;-69
2023/11/26 02:18:42;;;;;;;1.20;0.80;;;21.00;85.80;;;;;;5029749;28;21147;-70
2023/11/26 02:21:09;;;;;;;1.47;1.03;;;21.00;85.60;;;;;;5028560;28;20469;-70
2023/11/26 02:23:36;;;;;;;1.20;0.77;;;20.90;85.90;;;;;;5028700;28;20462;-70
2023/11/26 02:26:05;;;;;;;1.00;0.80;;;20.80;85.70;;;;;;5027613;28;20266;-70
2023/11/26 02:28:32;;;;;;;1.50;1.10;;;20.90;85.70;;;;;;5028917;28;20458;-70
2023/11/26 02:30:59;;;;;;;1.60;0.90;;;20.90;85.80;;;;;;5024534;28;20578;-71
2023/11/26 02:33:26;;;;;;;1.40;1.27;;;21.00;86.30;;;;;;5029417;28;20449;-70
2023/11/26 02:35:52;;;;;;;1.13;0.90;;;20.90;86.10;;;;;;5030191;28;20198;-70
2023/11/26 02:38:19;;;;;;;1.57;0.80;;;21.00;86.20;;;;;;5027294;28;20462;-70
2023/11/26 02:40:48;;;;;;;1.15;0.75;;;21.00;86.00;;;;;;5028906;28;20469;-70
2023/11/26 02:43:16;;;;;;;1.20;0.90;;;20.90;86.90;;;;;;5027544;28;20484;-70
2023/11/26 02:45:43;;;;;;;1.27;0.80;;;21.00;87.10;;;;;;5023441;28;20458;-71
2023/11/26 02:48:10;;;;;;;1.17;1.00;;;20.90;85.00;;;;;;5027210;28;20195;-70
2023/11/26 02:50:37;;;;;;;1.00;0.90;;;21.00;87.50;;;;;;5026108;28;20231;-71
2023/11/26 02:53:04;;;;;;;1.30;0.87;;;20.90;87.50;;;;;;5027367;28;20203;-71
2023/11/26 02:55:31;;;;;;;1.77;1.00;;;20.90;87.40;;;;;;5029676;28;20468;-71
2023/11/26 02:57:57;;;;;;;1.10;0.80;;;20.90;87.20;;;;;;5033230;28;20188;-70
2023/11/26 03:00:28;;;;;;;1.87;1.07;;;20.90;87.80;;;;;;5030152;28;21520;-70
2023/11/26 03:02:55;;;;;;;1.23;1.00;;;20.90;87.30;;;;;;5019686;28;20811;-70
2023/11/26 03:05:22;;;;;;;1.20;0.80;;;21.00;87.50;;;;;;5032097;28;20453;-70
2023/11/26 03:07:51;;;;;;;1.37;1.00;;;20.90;87.90;;;;;;5020816;28;20463;-70
2023/11/26 03:13:12;;;;;;;1.15;0.93;;;20.90;88.00;;;;;;5030606;28;20766;-69
2023/11/26 03:15:41;;;;;;;1.10;0.80;;;20.90;88.00;;;;;;5025622;28;20207;-70
2023/11/26 03:18:09;;;;;;;1.90;1.00;;;20.90;87.70;;;;;;5018161;28;20203;-70
2023/11/26 03:20:36;;;;;;;1.30;0.97;;;20.90;87.20;;;;;;5028232;28;21224;-70
2023/11/26 03:23:04;;;;;;;1.20;0.83;;;20.90;85.90;;;;;;5031461;28;21123;-70
2023/11/26 03:25:31;;;;;;;1.00;0.70;;;20.90;86.70;;;;;;5033589;28;21095;-70
2023/11/26 03:27:59;;;;;;;1.10;0.80;;;20.90;87.80;;;;;;5031518;28;20450;-70
2023/11/26 03:30:26;;;;;;;1.10;0.90;;;20.90;88.70;;;;;;5030357;28;20489;-69
2023/11/26 03:32:55;;;;;;;1.57;1.10;;;20.80;89.00;;;;;;5025373;28;20195;-70
2023/11/26 03:35:22;;;;;;;1.00;0.90;;;20.90;86.10;;;;;;5030040;28;20468;-70
2023/11/26 03:37:49;;;;;;;1.20;1.07;;;20.90;85.70;;;;;;5025904;28;20199;-70
2023/11/26 03:40:16;;;;;;;1.10;0.80;;;20.90;86.50;;;;;;5029635;28;20453;-70
2023/11/26 03:42:43;;;;;;;1.00;0.70;;;20.90;87.20;;;;;;5030524;28;20434;-70
2023/11/26 03:45:11;;;;;;;1.10;0.90;;;20.80;85.30;;;;;;5028163;28;20195;-70
2023/11/26 03:47:38;;;;;;;1.60;0.90;;;20.80;86.20;;;;;;5028958;28;20497;-70
2023/11/26 03:50:09;;;;;;;1.37;1.07;;;20.90;85.40;;;;;;5030502;28;20488;-69
2023/11/26 03:52:36;;;;;;;1.10;1.00;;;20.90;86.20;;;;;;5032401;28;20556;-70
2023/11/26 03:55:03;;;;;;;1.17;0.90;;;20.90;85.90;;;;;;5031826;28;20458;-69
2023/11/26 03:57:29;;;;;;;1.40;0.95;;;20.80;86.20;;;;;;5029667;28;20206;-70
2023/11/26 03:59:57;;;;;;;1.35;0.95;;;20.80;86.50;;;;;;5026529;28;20206;-69
2023/11/26 04:02:24;;;;;;;1.17;0.85;;;20.90;85.20;;;;;;5031535;28;20199;-70
2023/11/26 04:04:51;;;;;;;1.43;0.90;;;20.90;86.00;;;;;;5031295;28;20196;-70
2023/11/26 04:07:19;;;;;;;1.00;0.70;;;20.90;86.30;;;;;;5029850;28;20519;-69
2023/11/26 04:09:46;;;;;;;1.30;0.93;;;20.90;86.20;;;;;;5029355;28;20481;-70
2023/11/26 04:12:13;;;;;;;1.63;1.17;;;20.80;85.40;;;;;;5032339;28;20898;-69
2023/11/26 04:14:53;;;;;;;1.27;0.87;;;20.80;86.20;;;;;;5029145;28;20450;-70
2023/11/26 04:17:20;;;;;;;1.17;0.90;;;20.90;87.70;;;;;;5026298;28;20489;-70
2023/11/26 04:19:47;;;;;;;1.53;0.90;;;20.90;86.70;;;;;;5034515;28;20197;-70
2023/11/26 04:22:14;;;;;;;1.00;0.80;;;20.90;86.90;;;;;;5030720;28;20981;-70
2023/11/26 04:24:43;;;;;;;1.00;0.88;;;20.90;85.50;;;;;;5031492;28;20198;-69
2023/11/26 04:27:10;;;;;;;1.58;1.00;;;20.90;85.90;;;;;;5033818;28;20235;-69
2023/11/26 04:29:36;;;;;;;1.27;1.07;;;20.80;86.70;;;;;;5028931;28;20222;-70
2023/11/26 04:32:04;;;;;;;1.43;0.83;;;20.80;85.40;;;;;;5029570;28;20544;-70
2023/11/26 04:34:31;;;;;;;1.10;0.80;;;20.80;86.20;;;;;;5023827;28;20520;-70
2023/11/26 04:36:57;;;;;;;1.60;1.07;;;20.80;85.50;;;;;;5026298;28;20475;-70
2023/11/26 04:39:24;;;;;;;1.23;0.90;;;20.80;86.20;;;;;;5031719;28;20449;-69
2023/11/26 04:41:53;;;;;;;1.60;1.40;;;20.80;86.40;;;;;;5032924;28;20741;-70
2023/11/26 04:44:19;;;;;;;1.23;0.90;;;20.80;86.20;;;;;;5030720;28;20211;-71
2023/11/26 04:46:46;;;;;;;1.17;0.83;;;20.80;86.40;;;;;;5027100;28;20466;-69
2023/11/26 04:49:13;;;;;;;1.10;0.80;;;20.80;86.70;;;;;;5031088;28;20442;-71
2023/11/26 04:51:41;;;;;;;1.47;1.00;;;20.80;86.30;;;;;;5023145;28;20228;-69
2023/11/26 04:54:09;;;;;;;1.00;0.80;;;20.80;86.40;;;;;;5026539;28;20482;-70
2023/11/26 04:56:36;;;;;;;1.80;0.88;;;20.80;85.30;;;;;;5029651;28;20200;-69
2023/11/26 04:59:06;;;;;;;1.13;0.77;;;20.80;86.80;;;;;;5027923;28;20200;-69
2023/11/26 05:01:34;;;;;;;1.17;0.70;;;20.80;86.80;;;;;;5026560;28;20214;-69
2023/11/26 05:04:01;;;;;;;1.20;0.90;;;20.80;86.80;;;;;;5025930;28;20846;-69
2023/11/26 05:06:28;;;;;;;1.40;0.80;;;20.80;86.70;;;;;;5025772;28;20191;-69
2023/11/26 05:08:54;;;;;;;1.10;0.80;;;20.80;87.10;;;;;;5028487;28;20199;-69
2023/11/26 05:11:21;;;;;;;1.10;0.80;;;20.80;87.40;;;;;;5029472;28;20221;-71
2023/11/26 05:13:49;;;;;;;1.40;0.80;;;20.90;87.60;;;;;;5027474;28;20198;-69
2023/11/26 05:16:17;;;;;;;1.38;0.90;;;20.80;87.10;;;;;;5027770;28;20615;-70
2023/11/26 05:18:44;;;;;;;1.10;0.90;;;20.80;86.80;;;;;;5017828;28;20199;-69
2023/11/26 05:21:12;;;;;;;1.20;0.90;;;20.80;87.70;;;;;;5025563;28;20207;-70
2023/11/26 05:23:40;;;;;;;1.30;0.90;;;20.80;87.10;;;;;;5027201;28;20281;-69
2023/11/26 05:26:07;;;;;;;1.50;0.90;;;20.80;87.10;;;;;;5028826;28;20269;-70
2023/11/26 05:28:34;;;;;;;1.10;0.80;;;20.80;87.30;;;;;;5024696;28;20464;-69
2023/11/26 05:31:01;;;;;;;1.20;0.90;;;20.80;86.80;;;;;;5027079;28;20478;-70
2023/11/26 05:33:29;;;;;;;1.10;0.70;;;20.80;86.80;;;;;;5025285;28;20976;-70
2023/11/26 05:35:56;;;;;;;1.60;1.00;;;20.70;85.10;;;;;;5024685;28;20576;-70
2023/11/26 05:38:22;;;;;;;1.63;1.20;;;20.70;87.00;;;;;;5024593;28;20246;-69
2023/11/26 05:40:49;;;;;;;2.70;0.87;;;20.70;88.20;;;;;;5026922;28;20286;-65
2023/11/26 05:43:16;;;;;;;8.82;1.08;;;20.80;88.50;;;;;;5029404;28;20462;-67
2023/11/26 05:45:44;;;;;;;2.70;0.70;;;20.80;86.80;;;;;;5027602;28;20301;-69
2023/11/26 05:48:11;;;;;;;3.67;0.90;;;20.80;88.80;;;;;;5027970;28;20196;-71
2023/11/26 05:50:40;;;;;;;1.95;0.90;;;20.90;87.90;;;;;;5027330;28;21008;-75
2023/11/26 05:53:07;;;;;;;1.00;0.70;;;20.90;87.80;;;;;;5026899;28;20194;-72
2023/11/26 05:55:34;;;;;;;2.42;1.10;;;20.90;90.10;;;;;;5027648;28;20464;-73
2023/11/26 05:58:00;;;;;;;2.47;1.10;;;20.90;90.30;;;;;;5029054;28;20211;-74
2023/11/26 06:00:28;;;;;;;1.40;0.90;;;20.80;87.20;;;;;;5023416;28;20490;-74
2023/11/26 06:02:56;;;;;;;5.00;1.00;;;20.80;88.50;;;;;;5026691;28;20195;-68
2023/11/26 06:05:22;;;;;;;1.20;0.90;;;20.80;90.20;;;;;;5023073;28;20890;-71
2023/11/26 06:07:51;;;;;;;1.15;0.90;;;20.90;90.00;;;;;;5021148;28;20546;-77
2023/11/26 06:10:17;;;;;;;3.83;1.85;;;20.90;90.20;;;;;;5025672;28;20223;-74
2023/11/26 06:12:44;;;;;;;1.23;0.90;;;20.90;87.60;;;;;;5026954;28;20208;-76
2023/11/26 06:15:11;;;;;;;1.20;0.90;;;20.90;88.50;;;;;;5020500;28;20460;-70
2023/11/26 06:17:38;;;;;;;1.20;0.80;;;20.90;89.80;;;;;;5025039;28;20201;-76
2023/11/26 06:20:08;;;;;;;1.00;0.80;;;21.00;90.60;;;;;;5025591;28;20463;-73
2023/11/26 06:22:35;;;;;;;14.23;1.30;;;20.90;90.40;;;;;;5022508;28;20214;-68
2023/11/26 06:25:05;;;;;;;1.03;0.77;;;21.00;90.30;;;;;;5023726;28;21018;-69
2023/11/26 06:27:32;;;;;;;1.30;1.10;;;21.00;90.30;;;;;;5024447;28;20454;-75
2023/11/26 06:29:59;;;;;;;2.00;0.80;;;21.00;90.20;;;;;;5020057;28;20200;-74
2023/11/26 06:32:25;;;;;;;1.30;1.00;;;21.00;90.30;;;;;;5026482;28;21020;-72
2023/11/26 06:34:52;;;;;;;1.20;0.80;;;21.10;90.10;;;;;;5022195;28;20454;-72
2023/11/26 06:37:19;;;;;;;1.00;0.80;;;21.00;88.20;;;;;;5022597;28;20462;-70
2023/11/26 06:39:46;;;;;;;6.60;1.27;;;21.00;89.60;;;;;;5025268;28;22047;-72
2023/11/26 06:42:14;;;;;;;1.33;1.13;;;21.00;90.40;;;;;;5023077;28;20466;-73
2023/11/26 06:44:41;;;;;;;2.50;0.80;;;21.20;90.10;;;;;;5026161;28;20453;-72
2023/11/26 06:47:08;;;;;;;1.50;1.30;;;21.10;89.80;;;;;;5021466;28;20450;-75
2023/11/26 06:49:34;;;;;;;4.00;1.00;;;21.10;89.00;;;;;;5023051;28;20458;-73
2023/11/26 06:52:01;;;;;;;5.40;1.20;;;21.00;87.20;;;;;;5023823;28;20469;-72
2023/11/26 06:54:28;;;;;;;1.10;1.00;;;21.10;88.60;;;;;;5024078;28;20970;-74
2023/11/26 06:56:55;;;;;;;5.03;1.20;;;21.10;90.00;;;;;;5027167;28;20449;-69
2023/11/26 06:59:23;;;;;;;2.97;1.17;;;21.10;89.50;;;;;;5021263;28;20484;-69
2023/11/26 07:01:49;;;;;;;2.50;1.10;;;21.10;89.60;;;;;;5026054;28;20461;-71
2023/11/26 07:04:16;;;;;;;1.20;1.00;;;21.20;89.70;;;;;;5023316;28;20465;-72
2023/11/26 07:06:43;;;;;;;1.70;1.27;;;21.20;89.50;;;;;;5021732;28;20468;-72
2023/11/26 07:09:10;;;;;;;2.00;1.00;;;21.20;87.30;;;;;;5026933;28;20650;-73
2023/11/26 07:11:37;;;;;;;1.97;1.20;;;21.20;88.90;;;;;;5023775;28;20564;-73
2023/11/26 07:14:04;;;;;;;2.03;1.50;;;21.20;88.80;;;;;;5025024;28;20486;-76
2023/11/26 07:16:32;;;;;;;4.20;2.57;;;21.30;89.30;;;;;;5022013;28;20464;-75
2023/11/26 07:18:58;;;;;;;2.40;2.20;;;21.10;87.90;;;;;;5019249;28;20469;-75
2023/11/26 07:21:25;;;;;;;2.80;2.33;;;21.10;84.80;;;;;;5021513;28;20476;-74
2023/11/26 07:23:52;;;;;;;4.00;2.17;;;21.10;83.90;;;;;;5024801;28;20457;-71
2023/11/26 07:26:21;;;;;;;4.80;2.57;;;21.10;82.40;;;;;;5025174;28;20466;-72
2023/11/26 07:28:50;;;;;;;5.00;2.43;;;21.10;83.10;;;;;;5028738;28;20461;-76
2023/11/26 07:31:19;;;;;;;4.03;2.70;;;21.20;84.50;;;;;;5031238;28;20513;-77
2023/11/26 07:33:47;;;;;;;3.00;1.80;;;21.20;85.30;;;;;;5024777;28;20454;-77
2023/11/26 07:36:16;;;;;;;3.50;2.00;;;21.20;85.20;;;;;;5027375;28;21342;-76
2023/11/26 07:38:43;;;;;;;2.20;2.00;;;21.20;84.70;;;;;;5030231;28;20492;-79
2023/11/26 07:41:10;;;;;;;2.87;2.00;;;21.20;84.60;;;;;;5028951;28;20482;-76
2023/11/26 07:43:39;;;;;;;2.90;2.13;;;21.20;84.30;;;;;;5030094;28;20966;-76
2023/11/26 07:46:07;;;;;;;2.20;1.87;;;21.30;84.40;;;;;;5033699;28;20458;-77
2023/11/26 07:48:34;;;;;;;2.37;2.13;;;21.30;84.30;;;;;;5032181;28;20437;-75
2023/11/26 07:51:03;;;;;;;1.90;1.70;;;21.30;83.70;;;;;;5028856;28;20478;-76
2023/11/26 07:53:31;;;;;;;2.13;1.70;;;21.30;83.90;;;;;;5028827;28;20491;-75
2023/11/26 07:55:58;;;;;;;2.63;1.80;;;21.30;84.00;;;;;;5031505;28;20476;-76
2023/11/26 07:58:25;;;;;;;2.33;1.90;;;21.40;84.00;;;;;;5030403;28;20458;-75
2023/11/26 08:00:52;;;;;;;3.00;2.23;;;21.40;84.10;;;;;;5027022;28;20466;-77
2023/11/26 08:03:20;;;;;;;2.47;1.70;;;21.40;83.80;;;;;;5028087;28;20455;-76
2023/11/26 08:05:47;;;;;;;2.40;2.13;;;21.40;83.90;;;;;;5030233;28;20470;-78
2023/11/26 08:08:20;;;;;;;2.70;1.90;;;21.40;83.70;;;;;;5027831;28;20472;-76
2023/11/26 08:10:48;;;;;;;2.20;1.90;;;21.40;83.70;;;;;;5029366;28;20457;-75
2023/11/26 08:13:14;;;;;;;2.20;2.00;;;21.40;83.80;;;;;;5030943;28;20541;-73
2023/11/26 08:15:41;;;;;;;2.47;2.07;;;21.50;83.70;;;;;;5028004;28;20429;-69
2023/11/26 08:18:08;;;;;;;2.83;1.60;;;21.40;83.40;;;;;;5028007;28;20985;-71
2023/11/26 08:20:37;;;;;;;2.90;2.20;;;21.40;83.50;;;;;;5029099;28;20460;-70
2023/11/26 08:23:06;;;;;;;2.60;1.73;;;21.40;83.60;;;;;;5031144;28;20464;-68
2023/11/26 08:25:36;;;;;;;4.47;2.60;;;21.40;84.10;;;;;;5029563;28;20467;-67
2023/11/26 08:28:06;;;;;;;2.33;2.13;;;21.50;84.10;;;;;;5032759;28;21319;-67
2023/11/26 08:30:39;;;;;;;2.70;2.00;;;21.50;84.50;;;;;;5028110;28;20489;-67
2023/11/26 08:33:06;;;;;;;1.93;1.70;;;21.50;84.50;;;;;;5029338;28;20482;-68
2023/11/26 08:35:33;;;;;;;3.27;2.13;;;21.40;84.60;;;;;;5026704;28;20501;-70
2023/11/26 08:38:00;;;;;;;2.53;1.63;;;21.40;84.70;;;;;;5031664;28;20464;-70
2023/11/26 08:40:33;;;;;;;2.90;1.93;;;21.50;85.00;;;;;;5029102;28;21208;-70
2023/11/26 08:43:01;;;;;;;1.87;1.67;;;21.50;84.90;;;;;;5031896;28;20453;-72
2023/11/26 08:45:28;;;;;;;1.90;1.70;;;21.50;85.00;;;;;;5024935;28;21349;-70
2023/11/26 08:47:56;;;;;;;1.97;1.77;;;21.50;84.90;;;;;;5030606;28;20455;-70
2023/11/26 08:50:23;;;;;;;2.77;2.30;;;21.50;84.90;;;;;;5025854;28;20460;-69
2023/11/26 08:52:52;;;;;;;2.53;1.80;;;21.50;85.30;;;;;;5028309;28;20901;-70
2023/11/26 08:55:19;;;;;;;1.77;1.43;;;21.50;85.20;;;;;;5031583;28;20598;-70
2023/11/26 08:57:46;;;;;;;3.17;2.00;;;21.50;85.40;;;;;;5020337;28;20834;-72
2023/11/26 09:00:16;;;;;;;5.10;2.03;;;21.50;85.90;;;;;;5025047;28;20956;-70
2023/11/26 09:02:42;;;;;;;5.23;2.03;;;21.60;85.90;;;;;;5025330;28;20494;-72
2023/11/26 09:05:09;;;;;;;2.70;2.17;;;21.60;85.90;;;;;;5022155;28;20465;-69
2023/11/26 09:07:36;;;;;;;1.67;1.27;;;21.60;85.70;;;;;;5028418;28;21077;-68
2023/11/26 09:10:04;;;;;;;2.30;1.83;;;21.70;86.20;;;;;;5028950;28;20446;-67
2023/11/26 09:12:31;;;;;;;2.00;1.80;;;21.60;85.90;;;;;;5027267;28;20548;-69
2023/11/26 09:14:58;;;;;;;4.20;1.87;;;21.70;86.00;;;;;;5024685;28;20465;-69
2023/11/26 09:17:27;;;;;;;3.53;2.27;;;21.70;84.40;;;;;;5026753;28;20551;-69
2023/11/26 09:19:53;;;;;;;3.40;1.93;;;21.60;84.90;;;;;;5026202;28;20458;-69
2023/11/26 09:22:21;;;;;;;1.83;1.60;;;21.60;85.10;;;;;;5028829;28;20466;-69
2023/11/26 09:24:48;;;;;;;3.70;2.00;;;21.60;85.30;;;;;;5024875;28;20497;-69
2023/11/26 09:27:15;;;;;;;2.50;1.90;;;21.60;85.20;;;;;;5027580;28;20466;-69
2023/11/26 09:29:42;;;;;;;2.50;1.97;;;21.60;85.10;;;;;;5026652;28;20457;-68
2023/11/26 09:32:08;;;;;;;2.40;2.20;;;21.60;84.60;;;;;;5024666;28;20478;-69
2023/11/26 09:34:36;;;;;;;3.33;2.23;;;21.60;82.10;;;;;;5022858;28;20468;-69
2023/11/26 09:37:05;;;;;;;2.93;2.63;;;21.50;79.80;;;;;;5023237;28;20457;-68
2023/11/26 09:39:33;;;;;;;3.60;2.30;;;21.50;78.90;;;;;;5022619;28;20961;-67
2023/11/26 09:42:00;;;;;;;2.97;2.20;;;21.40;78.40;;;;;;5027411;28;21373;-68
2023/11/26 09:44:27;;;;;;;2.33;2.03;;;21.40;78.20;;;;;;5027934;28;20929;-69
2023/11/26 09:46:54;;;;;;;3.50;3.13;;;21.40;78.30;;;;;;5019376;28;20458;-69
2023/11/26 09:49:21;;;;;;;2.50;2.20;;;21.40;78.00;;;;;;5020113;28;20465;-68
2023/11/26 09:51:55;;;;;;;2.43;2.00;;;21.40;78.10;;;;;;5023026;28;20590;-68
2023/11/26 09:54:22;;;;;;;4.43;2.40;;;21.40;78.10;;;;;;5026090;28;21448;-69
2023/11/26 09:56:54;;;;;;;2.40;2.20;;;21.40;77.50;;;;;;5027224;28;20470;-68
2023/11/26 09:59:25;;;;;;;2.13;1.97;;;21.40;77.90;;;;;;5022810;28;20493;-69
2023/11/26 10:01:52;;;;;;;2.30;2.10;;;21.40;77.50;;;;;;5018871;28;21108;-69
2023/11/26 10:04:18;;;;;;;3.27;2.60;;;21.30;77.10;;;;;;5027219;28;20470;-69
2023/11/26 10:06:52;;;;;;;2.77;2.53;;;21.40;77.20;;;;;;5024954;28;20557;-69
2023/11/26 10:09:19;;;;;;;2.10;1.70;;;21.30;77.30;;;;;;5026651;28;20455;-69
2023/11/26 10:11:46;;;;;;;2.17;1.97;;;21.30;77.90;;;;;;5024622;28;21358;-69
2023/11/26 10:14:18;;;;;;;2.70;2.50;;;21.40;77.00;;;;;;5024104;28;20458;-68
2023/11/26 10:16:45;;;;;;;2.40;2.20;;;21.30;77.10;;;;;;5025066;28;20812;-68
2023/11/26 10:19:25;;;;;;;2.58;2.20;;;21.30;77.00;;;;;;5025968;28;20469;-68
2023/11/26 10:21:55;;;;;;;3.37;2.73;;;21.40;77.50;;;;;;5025499;28;20658;-69
2023/11/26 10:24:22;;;;;;;2.90;2.20;;;21.30;77.90;;;;;;5025493;28;20467;-68
2023/11/26 10:26:50;;;;;;;2.35;2.15;;;21.30;77.00;;;;;;5026823;28;21008;-69
2023/11/26 10:29:19;;;;;;;4.27;2.80;;;21.30;77.20;;;;;;5023741;28;20650;-68
2023/11/26 10:32:05;;;;;;;2.70;2.50;;;21.30;77.00;;;;;;5026589;28;20474;-68
2023/11/26 10:34:34;;;;;;;3.73;2.30;;;21.30;77.10;;;;;;5025797;28;20453;-70
2023/11/26 10:37:02;;;;;;;2.25;2.10;;;21.30;77.80;;;;;;5024313;28;20451;-61
2023/11/26 10:39:30;;;;;;;3.47;2.77;;;21.30;79.00;;;;;;5026263;28;20196;-63
2023/11/26 10:41:57;;;;;;;6.53;2.07;;;21.30;79.10;;;;;;5026350;28;21365;-63
2023/11/26 10:44:24;;;;;;;11.47;2.83;;;21.30;79.20;;;;;;5022133;28;20456;-61
2023/11/26 10:46:54;;;;;;;5.23;2.13;;;21.30;79.70;;;;;;5017968;28;21023;-71
2023/11/26 10:49:30;;;;;;;3.10;1.60;;;21.30;80.20;;;;;;5022523;28;20735;-68
2023/11/26 10:52:07;;;;;;;6.83;1.80;;;21.30;80.40;;;;;;5027002;28;20465;-72
2023/11/26 10:54:42;;;;;;;8.40;2.07;;;21.30;80.40;;;;;;5021929;28;20607;-69
2023/11/26 10:57:13;;;;;;;3.27;2.00;;;21.30;81.30;;;;;;5026201;28;20449;-69
2023/11/26 10:59:45;;;;;;;2.90;1.87;;;21.30;81.70;;;;;;5020799;28;20473;-68
2023/11/26 11:02:14;;;;;;;4.53;2.07;;;21.30;82.30;;;;;;5024294;28;20461;-67
2023/11/26 11:04:45;;;;;;;6.67;2.13;;;21.40;82.80;;;;;;5028021;28;20472;-65
2023/11/26 11:07:14;;;;;;;2.47;2.27;;;21.40;82.90;;;;;;5030210;28;20811;-63
2023/11/26 11:09:49;;;;;;;3.93;1.70;;;21.50;83.20;;;;;;5034234;28;20461;-65
2023/11/26 11:12:21;;;;;;;2.10;1.83;;;21.50;82.70;;;;;;5029317;28;20564;-66
2023/11/26 11:14:48;;;;;;;2.70;2.20;;;21.50;83.80;;;;;;5028641;28;20559;-67
2023/11/26 11:17:28;;;;;;;2.20;2.00;;;21.50;84.00;;;;;;5032540;28;20473;-69
2023/11/26 11:19:55;;;;;;;2.50;1.70;;;21.50;84.40;;;;;;5034642;28;20494;-67
2023/11/26 11:22:34;;;;;;;2.93;2.30;;;21.50;84.60;;;;;;5032800;28;20519;-69
2023/11/26 11:25:09;;;;;;;2.13;1.63;;;21.60;84.50;;;;;;5029558;28;20460;-67
2023/11/26 11:27:54;;;;;;;2.70;2.30;;;21.50;85.40;;;;;;5037065;28;21059;-69
2023/11/26 11:30:50;;;;;;;1.67;1.53;;;21.60;85.40;;;;;;5033734;28;20458;-64
2023/11/26 11:33:16;;;;;;;1.80;1.60;;;21.60;85.40;;;;;;4960168;28;20567;-68
2023/11/26 11:35:45;;;;;;;2.73;2.00;;;21.60;85.00;;;;;;5009198;28;20477;-66
2023/11/26 11:38:15;;;;;;;2.70;1.93;;;21.60;85.80;;;;;;5026313;28;20504;-70
2023/11/26 11:41:11;;;;;;;3.37;1.77;;;21.70;85.60;;;;;;5033683;28;21325;-66
2023/11/26 11:43:39;;;;;;;2.30;1.87;;;21.70;84.30;;;;;;5031513;28;20468;-64
2023/11/26 11:46:45;;;;;;;2.60;2.00;;;21.70;86.40;;;;;;5027137;28;20541;-65
2023/11/26 11:49:12;;;;;;;1.73;1.63;;;21.60;86.00;;;;;;5024286;28;20445;-65
2023/11/26 11:51:40;;;;;;;2.13;1.93;;;21.60;84.90;;;;;;5026569;28;20515;-67
2023/11/26 11:54:56;;;;;;;2.90;1.90;;;21.70;85.50;;;;;;5026185;28;20512;-68
2023/11/26 11:57:25;;;;;;;2.10;1.90;;;21.70;86.70;;;;;;5028351;28;21054;-66
2023/11/26 11:59:52;;;;;;;2.00;1.80;;;21.60;86.20;;;;;;5025730;28;20458;-68
2023/11/26 12:02:22;;;;;;;2.47;1.67;;;21.70;85.20;;;;;;5019183;28;20471;-68
2023/11/26 12:04:48;;;;;;;2.00;1.70;;;21.70;84.50;;;;;;5025016;28;20462;-63
2023/11/26 12:07:17;;;;;;;2.27;2.03;;;21.70;86.40;;;;;;5023893;28;20473;-65
2023/11/26 12:09:43;;;;;;;1.93;1.70;;;21.70;86.60;;;;;;5029519;28;20474;-62
2023/11/26 12:12:17;;;;;;;2.70;1.60;;;21.70;86.40;;;;;;5027008;28;20850;-64
2023/11/26 12:14:43;;;;;;;2.10;1.70;;;21.70;85.50;;;;;;5022477;28;20460;-68
2023/11/26 12:17:11;;;;;;;2.27;1.90;;;21.70;85.60;;;;;;5028249;28;20834;-68
2023/11/26 12:19:39;;;;;;;1.80;1.70;;;21.70;85.50;;;;;;5026207;28;20538;-64
2023/11/26 12:22:06;;;;;;;2.83;1.70;;;21.80;85.60;;;;;;5025622;28;20497;-63
2023/11/26 12:24:34;;;;;;;1.90;1.70;;;21.80;85.50;;;;;;5021505;28;20527;-65
2023/11/26 12:27:01;;;;;;;2.57;1.73;;;21.80;85.60;;;;;;5028009;28;20462;-66
2023/11/26 12:29:31;;;;;;;2.07;1.87;;;21.90;85.50;;;;;;5027381;28;20457;-68
2023/11/26 12:32:00;;;;;;;1.53;1.43;;;21.90;85.60;;;;;;5027704;28;20860;-71
2023/11/26 12:34:27;;;;;;;1.97;1.80;;;21.90;85.50;;;;;;5025032;28;20454;-74
2023/11/26 12:36:54;;;;;;;2.30;1.63;;;21.90;85.40;;;;;;5024617;28;21114;-69
2023/11/26 12:39:23;;;;;;;1.90;1.70;;;21.90;85.00;;;;;;5026397;28;20901;-68
2023/11/26 12:41:50;;;;;;;4.47;2.70;;;21.90;86.10;;;;;;5026305;28;20561;-67
2023/11/26 12:44:20;;;;;;;4.80;1.60;;;21.80;86.10;;;;;;5027714;28;20469;-64
2023/11/26 12:46:48;;;;;;;5.47;2.67;;;21.90;86.10;;;;;;5027993;28;20461;-63
2023/11/26 12:49:18;;;;;;;1.20;1.10;;;21.90;86.00;;;;;;5026558;28;20497;-67
2023/11/26 12:51:46;;;;;;;2.20;2.00;;;21.90;85.80;;;;;;5023931;28;20462;-69
2023/11/26 12:54:13;;;;;;;1.60;1.50;;;21.90;85.50;;;;;;5027604;28;21143;-66
2023/11/26 12:56:42;;;;;;;2.10;1.87;;;21.90;85.60;;;;;;5026994;28;20928;-66